Terminal Aerodrome Forecast
Issued by NWS Brownsville, TX

Home | Current Version | Previous Version | Text Only | Print | Product List | Glossary On
Versions: 1 2 3 4 5 6 7 8 9 10 11 12 13 14
578
FTUS44 KBRO 211120
TAFMFE
TAF
KMFE 211120Z 2112/2212 VRB02KT P6SM FEW020
     FM211400 12010KT P6SM SCT030
     FM212000 11013G18KT P6SM SCT060
     FM220400 12008KT P6SM FEW020=

USA.gov is the U.S. government's official web portal to all federal, state and local government web resources and services.